Time;durP1;ratioP1;P1;durP2;ratioP2;P2;SDS_P1;SDS_P2;PMS_P1;PMS_P2;Temp;Humidity;BMP_temperature;BMP_pressure;BME280_temperature;BME280_humidity;BME280_pressure;Samples;Min_cycle;Max_cycle;Signal;HPM_P1;HPM_P2
2022/06/01 00:00:19;;;;;;;;;;;;;;;;;;4978778;28;20421;-25
2022/06/01 00:02:45;;;;;;;;;;;;;;;;;;4978825;28;19918;-26
2022/06/01 00:05:11;;;;;;;;;;;;;;;;;;4978542;28;19922;-25
2022/06/01 00:07:37;;;;;;;;;;;;;;;;;;4978673;28;20372;-28
2022/06/01 00:10:03;;;;;;;;;;;;;;;;;;4978891;28;19961;-24
2022/06/01 00:12:29;;;;;;;;;;;;;;;;;;4978532;28;19922;-24
2022/06/01 00:14:55;;;;;;;;;;;;;;;;;;4978824;28;19914;-24
2022/06/01 00:17:21;;;;;;;;;;;;;;;;;;4977888;28;19924;-24
2022/06/01 00:19:47;;;;;;;;;;;;;;;;;;4978682;28;20254;-24
2022/06/01 00:22:14;;;;;;;;;;;;;;;;;;4977383;28;19910;-24
2022/06/01 00:24:40;;;;;;;;;;;;;;;;;;4978629;28;19914;-25
2022/06/01 00:27:06;;;;;;;;;;;;;;;;;;4978372;28;19942;-25
2022/06/01 00:29:32;;;;;;;;;;;;;;;;;;4978477;28;19918;-25
2022/06/01 00:31:58;;;;;;;;;;;;;;;;;;4978398;28;20028;-24
2022/06/01 00:34:24;;;;;;;;;;;;;;;;;;4978223;28;20318;-26
2022/06/01 00:36:50;;;;;;;;;;;;;;;;;;4978446;28;19969;-25
2022/06/01 00:39:16;;;;;;;;;;;;;;;;;;4977768;28;19949;-28
2022/06/01 00:41:42;;;;;;;;;;;;;;;;;;4977919;28;20328;-24
2022/06/01 00:44:08;;;;;;;;;;;;;;;;;;4977399;28;19970;-24
2022/06/01 00:46:34;;;;;;;;;;;;;;;;;;4977965;28;19914;-24
2022/06/01 00:49:00;;;;;;;;;;;;;;;;;;4977847;28;19914;-24
2022/06/01 00:51:26;;;;;;;;;;;;;;;;;;4977859;28;19914;-26
2022/06/01 00:53:52;;;;;;;;;;;;;;;;;;4976814;28;19914;-24
2022/06/01 00:56:18;;;;;;;;;;;;;;;;;;4977783;28;19921;-24
2022/06/01 00:58:44;;;;;;;;;;;;;;;;;;4977821;28;19910;-23
2022/06/01 01:01:11;;;;;;;;;;;;;;;;;;4977723;28;19973;-27
2022/06/01 01:03:37;;;;;;;;;;;;;;;;;;4977342;28;19964;-26
2022/06/01 01:06:03;;;;;;;;;;;;;;;;;;4977616;28;19914;-26
2022/06/01 01:08:29;;;;;;;;;;;;;;;;;;4977542;28;19937;-23
2022/06/01 01:10:55;;;;;;;;;;;;;;;;;;4976464;28;19980;-30
2022/06/01 01:13:21;;;;;;;;;;;;;;;;;;4977469;28;20350;-24
2022/06/01 01:15:56;;;;;;;;;;;;;;;;;;4977644;28;19918;-24
2022/06/01 01:18:22;;;;;;;;;;;;;;;;;;4977410;28;20010;-24
2022/06/01 01:20:48;;;;;;;;;;;;;;;;;;4976404;28;20277;-24
2022/06/01 01:23:16;;;;;;;;;;;;;;;;;;4977179;28;19965;-24
2022/06/01 01:25:42;;;;;;;;;;;;;;;;;;4977154;28;19920;-26
2022/06/01 01:28:08;;;;;;;;;;;;;;;;;;4977250;28;19992;-28
2022/06/01 01:30:34;;;;;;;;;;;;;;;;;;4977071;28;19977;-24
2022/06/01 01:33:00;;;;;;;;;;;;;;;;;;4977367;28;20498;-27
2022/06/01 01:35:26;;;;;;;;;;;;;;;;;;4977076;28;19914;-26
2022/06/01 01:37:52;;;;;;;;;;;;;;;;;;4976058;28;19925;-25
2022/06/01 01:40:18;;;;;;;;;;;;;;;;;;4977001;28;19910;-24
2022/06/01 01:42:45;;;;;;;;;;;;;;;;;;4976909;28;20353;-27
2022/06/01 01:45:11;;;;;;;;;;;;;;;;;;4976871;28;20013;-25
2022/06/01 01:47:37;;;;;;;;;;;;;;;;;;4975907;28;19957;-24
2022/06/01 01:50:07;;;;;;;;;;;;;;;;;;4976726;28;19918;-26
2022/06/01 01:52:33;;;;;;;;;;;;;;;;;;4976701;28;19910;-23
2022/06/01 01:54:59;;;;;;;;;;;;;;;;;;4976500;28;19978;-24
2022/06/01 01:57:25;;;;;;;;;;;;;;;;;;4977016;28;19921;-23
2022/06/01 01:59:51;;;;;;;;;;;;;;;;;;4975709;28;20261;-24
2022/06/01 02:02:17;;;;;;;;;;;;;;;;;;4976584;28;19937;-23
2022/06/01 02:07:27;;;;;;;;;;;;;;;;;;4976590;28;19968;-25
2022/06/01 02:12:41;;;;;;;;;;;;;;;;;;4976686;28;19921;-27
2022/06/01 02:15:07;;;;;;;;;;;;;;;;;;4975486;28;19918;-24
2022/06/01 02:17:33;;;;;;;;;;;;;;;;;;4975499;28;19918;-25
2022/06/01 02:19:59;;;;;;;;;;;;;;;;;;4976638;28;20304;-24
2022/06/01 02:22:25;;;;;;;;;;;;;;;;;;4976321;28;19914;-24
2022/06/01 02:24:51;;;;;;;;;;;;;;;;;;4976596;28;20257;-24
2022/06/01 02:27:17;;;;;;;;;;;;;;;;;;4975336;28;20005;-24
2022/06/01 02:29:43;;;;;;;;;;;;;;;;;;4976177;28;20001;-25
2022/06/01 02:32:09;;;;;;;;;;;;;;;;;;4975243;28;19914;-24
2022/06/01 02:34:37;;;;;;;;;;;;;;;;;;4975263;28;19964;-24
2022/06/01 02:37:06;;;;;;;;;;;;;;;;;;4975324;28;19914;-25
2022/06/01 02:39:32;;;;;;;;;;;;;;;;;;4976158;28;19914;-25
2022/06/01 02:44:43;;;;;;;;;;;;;;;;;;4976222;28;20020;-25
2022/06/01 02:47:09;;;;;;;;;;;;;;;;;;4976172;28;19949;-25
2022/06/01 02:49:36;;;;;;;;;;;;;;;;;;4976290;28;19918;-26
2022/06/01 02:52:02;;;;;;;;;;;;;;;;;;4976093;28;19976;-26
2022/06/01 02:54:28;;;;;;;;;;;;;;;;;;4976091;28;19914;-24
2022/06/01 02:56:54;;;;;;;;;;;;;;;;;;4975096;28;19920;-25
2022/06/01 02:59:20;;;;;;;;;;;;;;;;;;4975990;28;19969;-24
2022/06/01 03:01:46;;;;;;;;;;;;;;;;;;4975034;28;19941;-24
2022/06/01 03:04:14;;;;;;;;;;;;;;;;;;4975815;28;19941;-27
2022/06/01 03:06:40;;;;;;;;;;;;;;;;;;4977930;28;19914;-25
2022/06/01 03:09:06;;;;;;;;;;;;;;;;;;4979712;28;19922;-23
2022/06/01 03:11:32;;;;;;;;;;;;;;;;;;4979674;28;19918;-26
2022/06/01 03:13:58;;;;;;;;;;;;;;;;;;4979629;28;19914;-28
2022/06/01 03:16:24;;;;;;;;;;;;;;;;;;4979614;28;19921;-26
2022/06/01 03:18:50;;;;;;;;;;;;;;;;;;4979607;28;19964;-25
2022/06/01 03:21:16;;;;;;;;;;;;;;;;;;4978538;28;19914;-26
2022/06/01 03:23:42;;;;;;;;;;;;;;;;;;4979441;28;20001;-26
2022/06/01 03:26:08;;;;;;;;;;;;;;;;;;4979431;28;19957;-24
2022/06/01 03:28:34;;;;;;;;;;;;;;;;;;4979723;28;20230;-23
2022/06/01 03:31:01;;;;;;;;;;;;;;;;;;4979279;28;19918;-23
2022/06/01 03:33:27;;;;;;;;;;;;;;;;;;4978261;28;20357;-24
2022/06/01 03:35:53;;;;;;;;;;;;;;;;;;4979489;28;19921;-28
2022/06/01 03:38:19;;;;;;;;;;;;;;;;;;4978296;28;20249;-24
2022/06/01 03:40:45;;;;;;;;;;;;;;;;;;4979361;28;19914;-26
2022/06/01 03:43:12;;;;;;;;;;;;;;;;;;4978093;28;19914;-25
2022/06/01 03:45:56;;;;;;;;;;;;;;;;;;4979269;28;19926;-27
2022/06/01 03:48:22;;;;;;;;;;;;;;;;;;4978096;28;20261;-25
2022/06/01 03:50:48;;;;;;;;;;;;;;;;;;4978901;28;20283;-24
2022/06/01 03:53:14;;;;;;;;;;;;;;;;;;4978802;28;20415;-28
2022/06/01 03:55:40;;;;;;;;;;;;;;;;;;4978797;28;19910;-23
2022/06/01 03:58:06;;;;;;;;;;;;;;;;;;4979040;28;19960;-25
2022/06/01 04:00:32;;;;;;;;;;;;;;;;;;4977687;28;20361;-26
2022/06/01 04:02:58;;;;;;;;;;;;;;;;;;4977613;28;20369;-28
2022/06/01 04:05:24;;;;;;;;;;;;;;;;;;4978360;28;19917;-27
2022/06/01 04:07:50;;;;;;;;;;;;;;;;;;4978639;28;19910;-26
2022/06/01 04:10:16;;;;;;;;;;;;;;;;;;4978645;28;19922;-24
2022/06/01 04:12:42;;;;;;;;;;;;;;;;;;4977278;28;19921;-27
2022/06/01 04:15:08;;;;;;;;;;;;;;;;;;4977356;28;19914;-25
2022/06/01 04:17:34;;;;;;;;;;;;;;;;;;4978336;28;20049;-26
2022/06/01 04:20:00;;;;;;;;;;;;;;;;;;4977334;28;19953;-24
2022/06/01 04:22:28;;;;;;;;;;;;;;;;;;4978441;28;19957;-29
2022/06/01 04:24:54;;;;;;;;;;;;;;;;;;4978183;28;20384;-24
2022/06/01 04:27:20;;;;;;;;;;;;;;;;;;4978177;28;19972;-26
2022/06/01 04:29:46;;;;;;;;;;;;;;;;;;4978019;28;20354;-23
2022/06/01 04:32:12;;;;;;;;;;;;;;;;;;4977999;28;19921;-24
2022/06/01 04:34:38;;;;;;;;;;;;;;;;;;4978150;28;19914;-25
2022/06/01 04:37:04;;;;;;;;;;;;;;;;;;4978342;28;19940;-28
2022/06/01 04:39:30;;;;;;;;;;;;;;;;;;4977957;28;19997;-26
2022/06/01 04:41:56;;;;;;;;;;;;;;;;;;4976971;28;19910;-25
2022/06/01 04:44:22;;;;;;;;;;;;;;;;;;4977867;28;19965;-25
2022/06/01 04:46:48;;;;;;;;;;;;;;;;;;4977873;28;19922;-24
2022/06/01 04:49:14;;;;;;;;;;;;;;;;;;4976753;28;19989;-24
2022/06/01 04:51:40;;;;;;;;;;;;;;;;;;4977713;28;19910;-24
2022/06/01 04:54:07;;;;;;;;;;;;;;;;;;4977681;28;19914;-29
2022/06/01 04:56:33;;;;;;;;;;;;;;;;;;4977949;28;19946;-23
2022/06/01 04:58:59;;;;;;;;;;;;;;;;;;4976550;28;19936;-25
2022/06/01 05:01:25;;;;;;;;;;;;;;;;;;4977798;28;19915;-24
2022/06/01 05:03:51;;;;;;;;;;;;;;;;;;4977382;28;19988;-26
2022/06/01 05:06:17;;;;;;;;;;;;;;;;;;4977360;28;20005;-27
2022/06/01 05:08:43;;;;;;;;;;;;;;;;;;4977292;28;19914;-25
2022/06/01 05:11:09;;;;;;;;;;;;;;;;;;4977958;28;19925;-24
2022/06/01 05:13:35;;;;;;;;;;;;;;;;;;4976363;28;19980;-25
2022/06/01 05:16:01;;;;;;;;;;;;;;;;;;4977543;28;19922;-25
2022/06/01 05:18:27;;;;;;;;;;;;;;;;;;4977231;28;20322;-24
2022/06/01 05:20:54;;;;;;;;;;;;;;;;;;4977378;28;19949;-24
2022/06/01 05:23:20;;;;;;;;;;;;;;;;;;4977172;28;20309;-25
2022/06/01 05:25:46;;;;;;;;;;;;;;;;;;4977112;28;20230;-24
2022/06/01 05:28:12;;;;;;;;;;;;;;;;;;4976802;28;19914;-27
2022/06/01 05:30:38;;;;;;;;;;;;;;;;;;4976712;28;19961;-25
2022/06/01 05:33:04;;;;;;;;;;;;;;;;;;4976835;28;19911;-26
2022/06/01 05:35:30;;;;;;;;;;;;;;;;;;4976919;28;19914;-24
2022/06/01 05:37:56;;;;;;;;;;;;;;;;;;4976977;28;19921;-24
2022/06/01 05:40:22;;;;;;;;;;;;;;;;;;4976905;28;20056;-23
2022/06/01 05:42:48;;;;;;;;;;;;;;;;;;4976620;28;20004;-24
2022/06/01 05:45:14;;;;;;;;;;;;;;;;;;4976666;28;19921;-25
2022/06/01 05:47:40;;;;;;;;;;;;;;;;;;4975781;28;20004;-23
2022/06/01 05:50:06;;;;;;;;;;;;;;;;;;4976696;28;20345;-26
2022/06/01 05:52:32;;;;;;;;;;;;;;;;;;4976671;28;19910;-24
2022/06/01 05:54:58;;;;;;;;;;;;;;;;;;4976398;28;20294;-24
2022/06/01 05:57:24;;;;;;;;;;;;;;;;;;4976447;28;19910;-28
2022/06/01 05:59:50;;;;;;;;;;;;;;;;;;4975561;28;19914;-25
2022/06/01 06:02:16;;;;;;;;;;;;;;;;;;4975480;28;19921;-28
2022/06/01 06:04:42;;;;;;;;;;;;;;;;;;4975189;28;20311;-25
2022/06/01 06:07:08;;;;;;;;;;;;;;;;;;4976435;28;20004;-24
2022/06/01 06:09:34;;;;;;;;;;;;;;;;;;4976260;28;20265;-24
2022/06/01 06:12:00;;;;;;;;;;;;;;;;;;4976635;28;19967;-25
2022/06/01 06:14:26;;;;;;;;;;;;;;;;;;4976473;28;19941;-26
2022/06/01 06:16:52;;;;;;;;;;;;;;;;;;4976434;28;20012;-24
2022/06/01 06:19:18;;;;;;;;;;;;;;;;;;4976438;28;19911;-24
2022/06/01 06:21:45;;;;;;;;;;;;;;;;;;4976336;28;20016;-25
2022/06/01 06:24:11;;;;;;;;;;;;;;;;;;4976611;28;19914;-25
2022/06/01 06:26:37;;;;;;;;;;;;;;;;;;4976297;28;19921;-24
2022/06/01 06:29:03;;;;;;;;;;;;;;;;;;4975273;28;19914;-25
2022/06/01 06:31:29;;;;;;;;;;;;;;;;;;4976337;28;19914;-24
2022/06/01 06:33:55;;;;;;;;;;;;;;;;;;4976194;28;19914;-25
2022/06/01 06:36:21;;;;;;;;;;;;;;;;;;4976321;28;20164;-25
2022/06/01 06:38:47;;;;;;;;;;;;;;;;;;4976382;28;19918;-24
2022/06/01 06:41:12;;;;;;;;;;;;;;;;;;4977280;28;19918;-24
2022/06/01 06:43:38;;;;;;;;;;;;;;;;;;4979908;28;20318;-24
2022/06/01 06:46:04;;;;;;;;;;;;;;;;;;4980003;28;19914;-27
2022/06/01 06:48:30;;;;;;;;;;;;;;;;;;4980045;28;20342;-27
2022/06/01 06:50:57;;;;;;;;;;;;;;;;;;4978825;28;19914;-25
2022/06/01 06:53:23;;;;;;;;;;;;;;;;;;4979806;28;19925;-31
2022/06/01 06:55:49;;;;;;;;;;;;;;;;;;4979676;28;19910;-24
2022/06/01 06:58:15;;;;;;;;;;;;;;;;;;4979621;28;19910;-26
2022/06/01 07:00:41;;;;;;;;;;;;;;;;;;4979558;28;20327;-25
2022/06/01 07:03:07;;;;;;;;;;;;;;;;;;4979645;28;20333;-26
2022/06/01 07:08:17;;;;;;;;;;;;;;;;;;4979508;28;19980;-24
2022/06/01 07:10:43;;;;;;;;;;;;;;;;;;4979430;28;19926;-26
2022/06/01 07:13:09;;;;;;;;;;;;;;;;;;4979409;28;20354;-24
2022/06/01 07:15:36;;;;;;;;;;;;;;;;;;4979739;28;19981;-25
2022/06/01 07:18:02;;;;;;;;;;;;;;;;;;4979425;28;19940;-26
2022/06/01 07:20:28;;;;;;;;;;;;;;;;;;4979475;28;19914;-29
2022/06/01 07:22:54;;;;;;;;;;;;;;;;;;4979361;28;19921;-26
2022/06/01 07:25:20;;;;;;;;;;;;;;;;;;4979264;28;20253;-24
2022/06/01 07:27:48;;;;;;;;;;;;;;;;;;4978190;28;19914;-29
2022/06/01 07:30:15;;;;;;;;;;;;;;;;;;4978899;28;19968;-26
2022/06/01 07:32:41;;;;;;;;;;;;;;;;;;4979200;28;19921;-28
2022/06/01 07:35:08;;;;;;;;;;;;;;;;;;4978880;28;20225;-27
2022/06/01 07:43:07;;;;;;;;;;;;;;;;;;4978745;28;20045;-24
2022/06/01 07:45:34;;;;;;;;;;;;;;;;;;4978555;28;19914;-28
2022/06/01 07:48:01;;;;;;;;;;;;;;;;;;4978828;28;19925;-30
2022/06/01 07:50:27;;;;;;;;;;;;;;;;;;4978331;28;19941;-24
2022/06/01 07:52:53;;;;;;;;;;;;;;;;;;4977943;28;19918;-25
2022/06/01 07:55:19;;;;;;;;;;;;;;;;;;4978724;28;20313;-25
2022/06/01 07:57:46;;;;;;;;;;;;;;;;;;4978360;28;19910;-27
2022/06/01 08:00:12;;;;;;;;;;;;;;;;;;4978311;28;20352;-28
2022/06/01 08:02:38;;;;;;;;;;;;;;;;;;4978648;28;19910;-25
2022/06/01 08:05:04;;;;;;;;;;;;;;;;;;4978248;28;19918;-26
2022/06/01 08:07:30;;;;;;;;;;;;;;;;;;4977272;28;19910;-25
2022/06/01 08:09:56;;;;;;;;;;;;;;;;;;4978268;28;19929;-25
2022/06/01 08:15:08;;;;;;;;;;;;;;;;;;4978310;28;19964;-24
2022/06/01 08:17:34;;;;;;;;;;;;;;;;;;4978542;28;19939;-24
2022/06/01 08:20:01;;;;;;;;;;;;;;;;;;4978300;28;19914;-31
2022/06/01 08:22:27;;;;;;;;;;;;;;;;;;4978952;28;20025;-25
2022/06/01 08:24:53;;;;;;;;;;;;;;;;;;4978060;28;20234;-26
2022/06/01 08:27:20;;;;;;;;;;;;;;;;;;4977038;28;19921;-25
2022/06/01 08:29:46;;;;;;;;;;;;;;;;;;4978138;28;19928;-25
2022/06/01 08:32:12;;;;;;;;;;;;;;;;;;4977921;28;19917;-25
2022/06/01 08:34:38;;;;;;;;;;;;;;;;;;4978028;28;19914;-29
2022/06/01 08:37:05;;;;;;;;;;;;;;;;;;4977028;28;20246;-27
2022/06/01 08:39:31;;;;;;;;;;;;;;;;;;4977866;28;19925;-24
2022/06/01 08:41:57;;;;;;;;;;;;;;;;;;4977866;28;20231;-24
2022/06/01 08:44:23;;;;;;;;;;;;;;;;;;4976862;28;19964;-27
2022/06/01 08:46:49;;;;;;;;;;;;;;;;;;4977791;28;19969;-24
2022/06/01 08:49:15;;;;;;;;;;;;;;;;;;4976776;28;19960;-24
2022/06/01 08:51:41;;;;;;;;;;;;;;;;;;4976750;28;19926;-24
2022/06/01 08:54:07;;;;;;;;;;;;;;;;;;4977844;28;19968;-26
2022/06/01 08:56:33;;;;;;;;;;;;;;;;;;4977724;28;19911;-27
2022/06/01 08:58:59;;;;;;;;;;;;;;;;;;4977643;28;19918;-26
2022/06/01 09:01:25;;;;;;;;;;;;;;;;;;4977626;28;20037;-26
2022/06/01 09:03:51;;;;;;;;;;;;;;;;;;4976386;28;19962;-28
2022/06/01 09:06:17;;;;;;;;;;;;;;;;;;4977321;28;19914;-26
2022/06/01 09:08:43;;;;;;;;;;;;;;;;;;4977335;28;20258;-27
2022/06/01 09:11:09;;;;;;;;;;;;;;;;;;4976307;28;20121;-23
2022/06/01 09:13:35;;;;;;;;;;;;;;;;;;4977285;28;20341;-27
2022/06/01 09:16:01;;;;;;;;;;;;;;;;;;4977462;28;19929;-26
2022/06/01 09:18:27;;;;;;;;;;;;;;;;;;4977026;28;20357;-30
2022/06/01 09:23:37;;;;;;;;;;;;;;;;;;4977230;28;19917;-23
2022/06/01 09:26:05;;;;;;;;;;;;;;;;;;4976897;28;19921;-28
2022/06/01 09:28:31;;;;;;;;;;;;;;;;;;4977191;28;19914;-25
2022/06/01 09:30:57;;;;;;;;;;;;;;;;;;4976957;28;19918;-25
2022/06/01 09:33:23;;;;;;;;;;;;;;;;;;4976979;28;19965;-24
2022/06/01 09:35:49;;;;;;;;;;;;;;;;;;4976912;28;20001;-24
2022/06/01 09:38:15;;;;;;;;;;;;;;;;;;4976745;28;19945;-25
2022/06/01 09:40:41;;;;;;;;;;;;;;;;;;4976711;28;19925;-29
2022/06/01 09:43:07;;;;;;;;;;;;;;;;;;4976760;28;19914;-24
2022/06/01 09:45:34;;;;;;;;;;;;;;;;;;4976948;28;19925;-27
2022/06/01 09:48:00;;;;;;;;;;;;;;;;;;4976779;28;19910;-30
2022/06/01 09:50:26;;;;;;;;;;;;;;;;;;4975496;28;20045;-26
2022/06/01 09:52:54;;;;;;;;;;;;;;;;;;4975654;28;20433;-24
2022/06/01 09:55:20;;;;;;;;;;;;;;;;;;4976361;28;19914;-24
2022/06/01 09:57:46;;;;;;;;;;;;;;;;;;4976403;28;20326;-24
2022/06/01 10:08:26;;;;;;;;;;;;;;;;;;4976370;28;19973;-27
2022/06/01 10:10:52;;;;;;;;;;;;;;;;;;4975011;28;19933;-28
2022/06/01 10:13:18;;;;;;;;;;;;;;;;;;4976423;28;19914;-23
2022/06/01 10:15:44;;;;;;;;;;;;;;;;;;4976143;28;19922;-28
2022/06/01 10:18:10;;;;;;;;;;;;;;;;;;4976457;28;19968;-26
2022/06/01 10:20:37;;;;;;;;;;;;;;;;;;4976362;28;19957;-28
2022/06/01 10:23:03;;;;;;;;;;;;;;;;;;4976233;28;19918;-24
2022/06/01 10:25:29;;;;;;;;;;;;;;;;;;4976363;28;19914;-25
2022/06/01 10:27:55;;;;;;;;;;;;;;;;;;4976120;28;19914;-24
2022/06/01 10:30:22;;;;;;;;;;;;;;;;;;4976762;28;19921;-25
2022/06/01 10:32:48;;;;;;;;;;;;;;;;;;4975899;28;19910;-26
2022/06/01 10:35:14;;;;;;;;;;;;;;;;;;4976328;28;20013;-29
2022/06/01 10:37:40;;;;;;;;;;;;;;;;;;4976348;28;19953;-29
2022/06/01 10:40:06;;;;;;;;;;;;;;;;;;4976282;28;19924;-27
2022/06/01 10:45:31;;;;;;;;;;;;;;;;;;4964252;28;19918;-23
2022/06/01 10:47:57;;;;;;;;;;;;;;;;;;4975900;28;19933;-26
2022/06/01 10:50:23;;;;;;;;;;;;;;;;;;4974862;28;19929;-25
2022/06/01 10:52:49;;;;;;;;;;;;;;;;;;4975727;28;19910;-25
2022/06/01 10:55:15;;;;;;;;;;;;;;;;;;4975811;28;20280;-25
2022/06/01 10:57:41;;;;;;;;;;;;;;;;;;4976124;28;20017;-24
2022/06/01 11:00:07;;;;;;;;;;;;;;;;;;4976172;28;20012;-28
2022/06/01 11:02:33;;;;;;;;;;;;;;;;;;4975841;28;19910;-25
2022/06/01 11:04:59;;;;;;;;;;;;;;;;;;4975597;28;19918;-24
2022/06/01 11:07:25;;;;;;;;;;;;;;;;;;4974718;28;19937;-24
2022/06/01 11:09:53;;;;;;;;;;;;;;;;;;4975353;28;19937;-23
2022/06/01 11:12:19;;;;;;;;;;;;;;;;;;4975788;28;20127;-24
2022/06/01 11:14:45;;;;;;;;;;;;;;;;;;4975457;28;19915;-25
2022/06/01 11:17:11;;;;;;;;;;;;;;;;;;4975585;28;20365;-24
2022/06/01 11:19:37;;;;;;;;;;;;;;;;;;4975277;28;19973;-29
2022/06/01 11:22:05;;;;;;;;;;;;;;;;;;4975246;28;20305;-26
2022/06/01 11:24:31;;;;;;;;;;;;;;;;;;4975174;28;19918;-28
2022/06/01 11:26:59;;;;;;;;;;;;;;;;;;4976125;28;19917;-24
2022/06/01 11:29:25;;;;;;;;;;;;;;;;;;4979308;28;19914;-25
2022/06/01 11:31:52;;;;;;;;;;;;;;;;;;4979049;28;20050;-23
2022/06/01 11:34:18;;;;;;;;;;;;;;;;;;4979081;28;19914;-26
2022/06/01 11:36:44;;;;;;;;;;;;;;;;;;4979107;28;19910;-24
2022/06/01 11:39:10;;;;;;;;;;;;;;;;;;4979022;28;20235;-24
2022/06/01 11:41:36;;;;;;;;;;;;;;;;;;4977956;28;20005;-24
2022/06/01 11:44:02;;;;;;;;;;;;;;;;;;4978942;28;19949;-27
2022/06/01 11:46:28;;;;;;;;;;;;;;;;;;4978024;28;19921;-25
2022/06/01 11:48:54;;;;;;;;;;;;;;;;;;4979358;28;19914;-24
2022/06/01 11:51:21;;;;;;;;;;;;;;;;;;4978705;28;19944;-27
2022/06/01 11:53:47;;;;;;;;;;;;;;;;;;4978494;28;19914;-25
2022/06/01 11:56:13;;;;;;;;;;;;;;;;;;4978539;28;20265;-24
2022/06/01 11:58:39;;;;;;;;;;;;;;;;;;4978449;28;19915;-24
2022/06/01 12:01:05;;;;;;;;;;;;;;;;;;4978699;28;19914;-26
2022/06/01 12:03:31;;;;;;;;;;;;;;;;;;4978018;28;19940;-31
2022/06/01 12:05:57;;;;;;;;;;;;;;;;;;4978726;28;20265;-24
2022/06/01 12:08:23;;;;;;;;;;;;;;;;;;4978345;28;19914;-25
2022/06/01 12:10:49;;;;;;;;;;;;;;;;;;4978148;28;19932;-24
2022/06/01 12:13:15;;;;;;;;;;;;;;;;;;4978252;28;19997;-26
2022/06/01 12:15:41;;;;;;;;;;;;;;;;;;4978213;28;19918;-24
2022/06/01 12:18:07;;;;;;;;;;;;;;;;;;4977078;28;20341;-24
2022/06/01 12:20:33;;;;;;;;;;;;;;;;;;4978264;28;20009;-28
2022/06/01 12:28:33;;;;;;;;;;;;;;;;;;4978378;28;20370;-25
2022/06/01 12:30:59;;;;;;;;;;;;;;;;;;4977819;28;19918;-24
2022/06/01 12:33:25;;;;;;;;;;;;;;;;;;4977949;28;20000;-25
2022/06/01 12:35:51;;;;;;;;;;;;;;;;;;4978210;28;19962;-28
2022/06/01 12:38:17;;;;;;;;;;;;;;;;;;4975997;28;20357;-24
2022/06/01 12:40:43;;;;;;;;;;;;;;;;;;4977707;28;19917;-28
2022/06/01 12:43:09;;;;;;;;;;;;;;;;;;4977965;28;20228;-27
2022/06/01 12:45:35;;;;;;;;;;;;;;;;;;4977913;28;19925;-25
2022/06/01 12:48:01;;;;;;;;;;;;;;;;;;4976959;28;19914;-25
2022/06/01 12:50:28;;;;;;;;;;;;;;;;;;4976720;28;20266;-26
2022/06/01 12:52:54;;;;;;;;;;;;;;;;;;4977754;28;19910;-24
2022/06/01 12:55:20;;;;;;;;;;;;;;;;;;4977830;28;20376;-26
2022/06/01 12:57:46;;;;;;;;;;;;;;;;;;4977475;28;19922;-25
2022/06/01 13:00:12;;;;;;;;;;;;;;;;;;4977380;28;20005;-25
2022/06/01 13:02:38;;;;;;;;;;;;;;;;;;4977265;28;19933;-25
2022/06/01 13:05:04;;;;;;;;;;;;;;;;;;4977317;28;19918;-27
2022/06/01 13:07:30;;;;;;;;;;;;;;;;;;4977275;28;20312;-26
2022/06/01 13:09:56;;;;;;;;;;;;;;;;;;4977064;28;20013;-26
2022/06/01 13:12:22;;;;;;;;;;;;;;;;;;4977262;28;19910;-30
2022/06/01 13:14:48;;;;;;;;;;;;;;;;;;4977072;28;19914;-27
2022/06/01 13:17:15;;;;;;;;;;;;;;;;;;4977391;28;20001;-25
2022/06/01 13:19:41;;;;;;;;;;;;;;;;;;4976240;28;20381;-27
2022/06/01 13:22:07;;;;;;;;;;;;;;;;;;4977169;28;20309;-25
2022/06/01 13:24:33;;;;;;;;;;;;;;;;;;4976988;28;19914;-24
2022/06/01 13:27:00;;;;;;;;;;;;;;;;;;4977578;28;19911;-26
2022/06/01 13:29:26;;;;;;;;;;;;;;;;;;4977044;28;19921;-25
2022/06/01 13:31:52;;;;;;;;;;;;;;;;;;4976011;28;19910;-27
2022/06/01 13:34:19;;;;;;;;;;;;;;;;;;4977311;28;19969;-26
2022/06/01 13:36:45;;;;;;;;;;;;;;;;;;4977363;28;19921;-27
2022/06/01 13:39:11;;;;;;;;;;;;;;;;;;4976944;28;19914;-24
2022/06/01 13:41:37;;;;;;;;;;;;;;;;;;4975966;28;20020;-25
2022/06/01 13:44:05;;;;;;;;;;;;;;;;;;4976784;28;20042;-25
2022/06/01 13:46:31;;;;;;;;;;;;;;;;;;4975919;28;20005;-25
2022/06/01 13:48:57;;;;;;;;;;;;;;;;;;4976897;28;20373;-28
2022/06/01 13:51:23;;;;;;;;;;;;;;;;;;4976240;28;19918;-25
2022/06/01 13:53:49;;;;;;;;;;;;;;;;;;4977351;28;19982;-26
2022/06/01 13:56:15;;;;;;;;;;;;;;;;;;4976711;28;20017;-26
2022/06/01 13:58:41;;;;;;;;;;;;;;;;;;4976578;28;19925;-26
2022/06/01 14:01:07;;;;;;;;;;;;;;;;;;4975633;28;19914;-25
2022/06/01 14:03:33;;;;;;;;;;;;;;;;;;4978318;28;19914;-25
2022/06/01 14:05:59;;;;;;;;;;;;;;;;;;4978357;28;19973;-24
2022/06/01 14:08:25;;;;;;;;;;;;;;;;;;4975546;28;20417;-25
2022/06/01 14:10:52;;;;;;;;;;;;;;;;;;4975512;28;20373;-28
2022/06/01 14:13:18;;;;;;;;;;;;;;;;;;4976389;28;20343;-24
2022/06/01 14:15:44;;;;;;;;;;;;;;;;;;4976726;28;19998;-28
2022/06/01 14:18:10;;;;;;;;;;;;;;;;;;4975303;28;19910;-25
2022/06/01 14:20:36;;;;;;;;;;;;;;;;;;4976314;28;20399;-26
2022/06/01 14:23:02;;;;;;;;;;;;;;;;;;4975273;28;19993;-27
2022/06/01 14:30:57;;;;;;;;;;;;;;;;;;4976496;28;19941;-26
2022/06/01 14:33:23;;;;;;;;;;;;;;;;;;4976160;28;20452;-27
2022/06/01 14:35:51;;;;;;;;;;;;;;;;;;4976153;28;19914;-27
2022/06/01 14:38:18;;;;;;;;;;;;;;;;;;4976176;28;19925;-25
2022/06/01 14:40:44;;;;;;;;;;;;;;;;;;4976039;28;19941;-27
2022/06/01 14:43:10;;;;;;;;;;;;;;;;;;4975123;28;20030;-25
2022/06/01 14:45:36;;;;;;;;;;;;;;;;;;4975049;28;19953;-26
2022/06/01 14:48:02;;;;;;;;;;;;;;;;;;4975124;28;19969;-25
2022/06/01 14:50:28;;;;;;;;;;;;;;;;;;4975826;28;19922;-24
2022/06/01 14:52:54;;;;;;;;;;;;;;;;;;4975884;28;19925;-26
2022/06/01 14:55:20;;;;;;;;;;;;;;;;;;4976308;28;20313;-29
2022/06/01 14:57:46;;;;;;;;;;;;;;;;;;4975986;28;19914;-27
2022/06/01 15:00:12;;;;;;;;;;;;;;;;;;4975843;28;19918;-26
2022/06/01 15:02:38;;;;;;;;;;;;;;;;;;4977750;28;20324;-26
2022/06/01 15:05:05;;;;;;;;;;;;;;;;;;4978630;28;20404;-25
2022/06/01 15:07:31;;;;;;;;;;;;;;;;;;4979747;28;19918;-26
2022/06/01 15:09:57;;;;;;;;;;;;;;;;;;4979680;28;19922;-25
2022/06/01 15:12:23;;;;;;;;;;;;;;;;;;4979922;28;20000;-25
2022/06/01 15:14:49;;;;;;;;;;;;;;;;;;4979663;28;19949;-26
2022/06/01 15:17:15;;;;;;;;;;;;;;;;;;4979962;28;19909;-25
2022/06/01 15:19:41;;;;;;;;;;;;;;;;;;4979568;28;20358;-25
2022/06/01 15:22:07;;;;;;;;;;;;;;;;;;4979801;28;19917;-28
2022/06/01 15:24:33;;;;;;;;;;;;;;;;;;4979539;28;19918;-27
2022/06/01 15:26:59;;;;;;;;;;;;;;;;;;4979467;28;19911;-26
2022/06/01 15:40:24;;;;;;;;;;;;;;;;;;4979271;28;19937;-26
2022/06/01 15:42:50;;;;;;;;;;;;;;;;;;4979312;28;19914;-27
2022/06/01 15:45:16;;;;;;;;;;;;;;;;;;4979123;28;19914;-25
2022/06/01 15:47:42;;;;;;;;;;;;;;;;;;4977956;28;19914;-28
2022/06/01 15:50:08;;;;;;;;;;;;;;;;;;4978715;28;19921;-30
2022/06/01 15:52:34;;;;;;;;;;;;;;;;;;4979208;28;20403;-25
2022/06/01 15:55:00;;;;;;;;;;;;;;;;;;4979109;28;20326;-24
2022/06/01 15:57:26;;;;;;;;;;;;;;;;;;4977812;28;19921;-27
2022/06/01 15:59:52;;;;;;;;;;;;;;;;;;4978924;28;19989;-26
2022/06/01 16:02:18;;;;;;;;;;;;;;;;;;4978686;28;19918;-27
2022/06/01 16:04:44;;;;;;;;;;;;;;;;;;4977413;28;19977;-27
2022/06/01 16:07:10;;;;;;;;;;;;;;;;;;4979006;28;19910;-24
2022/06/01 16:09:36;;;;;;;;;;;;;;;;;;4978595;28;19914;-32
2022/06/01 16:12:02;;;;;;;;;;;;;;;;;;4978326;28;20033;-31
2022/06/01 16:14:28;;;;;;;;;;;;;;;;;;4978337;28;19910;-25
2022/06/01 16:16:54;;;;;;;;;;;;;;;;;;4978451;28;19941;-25
2022/06/01 16:19:20;;;;;;;;;;;;;;;;;;4978476;28;19940;-26
2022/06/01 16:21:46;;;;;;;;;;;;;;;;;;4978553;28;19918;-25
2022/06/01 16:24:12;;;;;;;;;;;;;;;;;;4978291;28;20329;-27
2022/06/01 16:26:39;;;;;;;;;;;;;;;;;;4978181;28;19917;-25
2022/06/01 16:29:05;;;;;;;;;;;;;;;;;;4978445;28;19926;-25
2022/06/01 16:31:31;;;;;;;;;;;;;;;;;;4977155;28;20239;-27
2022/06/01 16:33:57;;;;;;;;;;;;;;;;;;4978329;28;20384;-25
2022/06/01 16:36:29;;;;;;;;;;;;;;;;;;4977979;28;19957;-26
2022/06/01 16:38:55;;;;;;;;;;;;;;;;;;4978287;28;19914;-25
2022/06/01 16:41:21;;;;;;;;;;;;;;;;;;4978610;28;20046;-26
2022/06/01 16:43:46;;;;;;;;;;;;;;;;;;4977807;28;19945;-25
2022/06/01 16:46:13;;;;;;;;;;;;;;;;;;4977837;28;20353;-25
2022/06/01 16:48:39;;;;;;;;;;;;;;;;;;4977755;28;20349;-25
2022/06/01 16:51:05;;;;;;;;;;;;;;;;;;4977884;28;19914;-26
2022/06/01 16:53:31;;;;;;;;;;;;;;;;;;4977924;28;19914;-28
2022/06/01 16:55:57;;;;;;;;;;;;;;;;;;4977621;28;19918;-26
2022/06/01 16:58:23;;;;;;;;;;;;;;;;;;4976720;28;19910;-25
2022/06/01 17:00:49;;;;;;;;;;;;;;;;;;4976553;28;19997;-25
2022/06/01 17:03:15;;;;;;;;;;;;;;;;;;4977472;28;20017;-26
2022/06/01 17:05:42;;;;;;;;;;;;;;;;;;4977321;28;20265;-25
2022/06/01 17:08:08;;;;;;;;;;;;;;;;;;4977456;28;19942;-25
2022/06/01 17:10:34;;;;;;;;;;;;;;;;;;4976411;28;19922;-26
2022/06/01 17:13:00;;;;;;;;;;;;;;;;;;4977428;28;19996;-27
2022/06/01 17:15:27;;;;;;;;;;;;;;;;;;4977521;28;19914;-24
2022/06/01 17:17:55;;;;;;;;;;;;;;;;;;4977397;28;19910;-26
2022/06/01 17:20:21;;;;;;;;;;;;;;;;;;4977460;28;19940;-25
2022/06/01 17:22:47;;;;;;;;;;;;;;;;;;4977263;28;19918;-25
2022/06/01 17:25:13;;;;;;;;;;;;;;;;;;4976567;28;19918;-26
2022/06/01 17:27:39;;;;;;;;;;;;;;;;;;4976185;28;20070;-24
2022/06/01 17:30:06;;;;;;;;;;;;;;;;;;4975882;28;19918;-24
2022/06/01 17:32:32;;;;;;;;;;;;;;;;;;4976035;28;19925;-25